createdAt,value
2019-05-18T00:00:09.691Z,31.48
2019-05-18T00:02:44.009Z,39.20
2019-05-18T00:05:18.749Z,31.93
2019-05-18T00:07:54.147Z,33.53
2019-05-18T00:10:29.053Z,30.48
2019-05-18T00:13:03.696Z,30.50
2019-05-18T00:15:38.949Z,28.40
2019-05-18T00:18:13.460Z,30.55
2019-05-18T00:20:48.237Z,31.70
2019-05-18T00:23:22.397Z,31.68
2019-05-18T00:25:58.850Z,32.33
2019-05-18T00:28:33.145Z,30.00
2019-05-18T00:31:10.104Z,31.82
2019-05-18T00:33:50.569Z,30.55
2019-05-18T00:36:25.931Z,31.42
2019-05-18T00:39:00.435Z,30.15
2019-05-18T00:41:35.820Z,32.67
2019-05-18T00:44:10.286Z,36.25
2019-05-18T00:46:48.692Z,33.75
2019-05-18T00:49:23.473Z,32.78
2019-05-18T00:51:59.789Z,31.20
2019-05-18T00:54:34.436Z,32.38
2019-05-18T00:57:10.130Z,34.95
2019-05-18T00:59:45.030Z,34.78
2019-05-18T01:02:19.514Z,37.15
2019-05-18T01:04:54.315Z,32.83
2019-05-18T01:07:28.988Z,32.65
2019-05-18T01:10:03.753Z,32.25
2019-05-18T01:12:36.689Z,34.78
2019-05-18T01:15:09.998Z,32.45
2019-05-18T01:17:56.353Z,30.37
2019-05-18T01:20:14.408Z,30.40
2019-05-18T01:22:43.219Z,31.73
2019-05-18T01:25:11.983Z,28.75
2019-05-18T01:27:40.799Z,36.60
2019-05-18T01:30:10.709Z,34.70
2019-05-18T01:32:39.498Z,30.10
2019-05-18T01:35:08.882Z,31.70
2019-05-18T01:37:37.696Z,33.95
2019-05-18T01:40:06.860Z,33.65
2019-05-18T01:42:35.675Z,31.93
2019-05-18T01:45:16.338Z,30.72
2019-05-18T01:47:38.066Z,32.75
2019-05-18T01:50:07.980Z,32.00
2019-05-18T01:52:36.872Z,35.13
2019-05-18T01:55:06.853Z,33.05
2019-05-18T01:57:35.760Z,30.43
2019-05-18T02:00:06.757Z,33.08
2019-05-18T02:02:35.594Z,33.45
2019-05-18T02:05:06.828Z,32.33
2019-05-18T02:07:35.745Z,34.27
2019-05-18T02:10:06.280Z,36.63
2019-05-18T02:12:35.167Z,38.10
2019-05-18T02:15:05.386Z,35.78
2019-05-18T02:17:34.273Z,36.63
2019-05-18T02:20:03.166Z,37.45
2019-05-18T02:22:31.956Z,39.40
2019-05-18T02:25:00.741Z,39.55
2019-05-18T02:27:29.529Z,38.85
2019-05-18T02:29:58.320Z,41.75
2019-05-18T02:32:27.105Z,41.02
2019-05-18T02:34:55.875Z,39.25
2019-05-18T02:37:24.782Z,40.38
2019-05-18T02:39:55.185Z,42.80
2019-05-18T02:42:24.101Z,40.20
2019-05-18T02:44:52.892Z,41.15
2019-05-18T02:47:21.685Z,43.63
2019-05-18T02:49:50.569Z,39.92
2019-05-18T02:52:19.448Z,44.88
2019-05-18T02:54:48.249Z,45.88
2019-05-18T02:57:17.145Z,50.33
2019-05-18T02:59:45.927Z,41.45
2019-05-18T03:02:14.714Z,43.42
2019-05-18T03:04:43.683Z,43.92
2019-05-18T03:07:12.496Z,44.60
2019-05-18T03:09:41.489Z,46.77
2019-05-18T03:12:10.383Z,47.93
2019-05-18T03:14:39.269Z,47.58
2019-05-18T03:17:08.057Z,48.50
2019-05-18T03:19:36.859Z,49.80
2019-05-18T03:22:06.042Z,48.87
2019-05-18T03:24:34.831Z,48.10
2019-05-18T03:27:03.618Z,56.15
2019-05-18T03:29:32.412Z,50.03
2019-05-18T03:32:01.310Z,48.42
2019-05-18T03:34:30.188Z,56.80
2019-05-18T03:36:59.083Z,53.10
2019-05-18T03:39:27.971Z,50.33
2019-05-18T03:41:56.730Z,50.80
2019-05-18T03:44:25.522Z,54.27
2019-05-18T03:46:54.313Z,60.80
2019-05-18T03:49:27.387Z,53.23
2019-05-18T03:51:53.651Z,56.65
2019-05-18T03:54:22.449Z,56.55
2019-05-18T03:56:51.210Z,54.30
2019-05-18T03:59:20.018Z,56.77
2019-05-18T04:01:48.805Z,50.20
2019-05-18T04:04:18.586Z,55.70
2019-05-18T04:06:47.612Z,62.13
2019-05-18T04:09:16.372Z,57.17
2019-05-18T04:11:45.299Z,57.25
2019-05-18T04:14:14.091Z,58.40
2019-05-18T04:16:42.843Z,57.30
2019-05-18T04:19:11.756Z,64.05
2019-05-18T04:21:40.847Z,57.43
2019-05-18T04:24:09.742Z,51.65
2019-05-18T04:26:38.851Z,53.15
2019-05-18T04:29:07.733Z,62.48
2019-05-18T04:31:36.622Z,55.38
2019-05-18T04:34:05.511Z,56.73
2019-05-18T04:36:34.270Z,53.13
2019-05-18T04:39:03.085Z,54.77
2019-05-18T04:41:31.849Z,55.33
2019-05-18T04:44:00.559Z,55.35
2019-05-18T04:46:29.222Z,54.05
2019-05-18T04:48:58.030Z,53.08
2019-05-18T04:51:26.822Z,58.48
2019-05-18T04:53:55.709Z,59.40
2019-05-18T04:56:24.500Z,53.13
2019-05-18T04:58:53.289Z,51.63
2019-05-18T05:01:22.180Z,53.70
2019-05-18T05:03:50.965Z,53.42
2019-05-18T05:06:19.740Z,54.33
2019-05-18T05:08:48.547Z,45.85
2019-05-18T05:11:17.360Z,53.38
2019-05-18T05:13:46.120Z,48.48
2019-05-18T05:16:15.014Z,49.88
2019-05-18T05:18:43.773Z,53.78
2019-05-18T05:21:12.558Z,53.25
2019-05-18T05:23:41.378Z,51.68
2019-05-18T05:26:10.160Z,49.70
2019-05-18T05:28:38.922Z,48.38
2019-05-18T05:31:07.739Z,48.85
2019-05-18T05:33:36.529Z,42.62
2019-05-18T05:36:05.393Z,47.58
2019-05-18T05:38:34.182Z,49.03
2019-05-18T05:41:02.997Z,46.05
2019-05-18T05:43:31.790Z,46.65
2019-05-18T05:46:00.674Z,46.55
2019-05-18T05:48:30.009Z,46.53
2019-05-18T05:50:58.861Z,48.08
2019-05-18T05:53:27.754Z,48.70
2019-05-18T05:55:56.728Z,47.35
2019-05-18T05:58:25.535Z,48.08
2019-05-18T06:00:55.200Z,45.17
2019-05-18T06:03:23.927Z,46.95
2019-05-18T06:05:52.817Z,48.15
2019-05-18T06:08:21.792Z,49.35
2019-05-18T06:10:50.701Z,49.03
2019-05-18T06:13:19.489Z,46.35
2019-05-18T06:15:48.379Z,48.20
2019-05-18T06:18:17.376Z,50.95
2019-05-18T06:20:51.575Z,47.23
2019-05-18T06:23:18.301Z,47.30
2019-05-18T06:25:47.218Z,46.33
2019-05-18T06:28:16.007Z,43.08
2019-05-18T06:30:44.797Z,47.90
2019-05-18T06:33:13.583Z,45.80
2019-05-18T06:35:42.542Z,48.95
2019-05-18T06:38:11.569Z,45.20
2019-05-18T06:40:40.459Z,46.58
2019-05-18T06:43:09.221Z,45.25
2019-05-18T06:45:38.448Z,49.10
2019-05-18T06:48:07.330Z,47.23
2019-05-18T06:50:36.126Z,45.23
2019-05-18T06:53:05.095Z,44.63
2019-05-18T06:55:34.501Z,41.28
2019-05-18T06:58:03.810Z,43.92
2019-05-18T07:00:32.792Z,45.45
2019-05-18T07:03:02.942Z,50.28
2019-05-18T07:05:31.797Z,44.08
2019-05-18T07:08:00.689Z,46.68
2019-05-18T07:10:30.012Z,41.53
2019-05-18T07:12:58.774Z,50.75
2019-05-18T07:15:27.591Z,41.20
2019-05-18T07:17:56.390Z,43.40
2019-05-18T07:20:25.167Z,46.18
2019-05-18T07:22:53.929Z,47.98
2019-05-18T07:25:22.848Z,42.13
2019-05-18T07:27:51.739Z,43.85
2019-05-18T07:30:20.510Z,42.23
2019-05-18T07:32:49.494Z,56.35
2019-05-18T07:35:18.549Z,47.40
2019-05-18T07:37:48.379Z,45.28
2019-05-18T07:40:18.665Z,51.88
2019-05-18T07:42:49.261Z,46.92
2019-05-18T07:45:19.400Z,50.55
2019-05-18T07:47:49.374Z,48.48
2019-05-18T07:50:18.798Z,46.15
2019-05-18T07:52:49.544Z,46.48
2019-05-18T07:55:19.267Z,48.48
2019-05-18T07:57:52.065Z,50.58
2019-05-18T08:00:22.621Z,46.83
2019-05-18T08:02:52.914Z,49.67
2019-05-18T08:05:23.472Z,41.80
2019-05-18T08:07:54.921Z,47.23
2019-05-18T08:10:39.229Z,45.33
2019-05-18T08:13:11.446Z,43.90
2019-05-18T08:18:10.797Z,43.92
2019-05-18T08:20:40.020Z,45.20
2019-05-18T08:23:13.075Z,42.08
2019-05-18T08:25:42.855Z,41.37
2019-05-18T08:28:13.036Z,38.78
2019-05-18T08:30:41.931Z,40.63
2019-05-18T08:33:10.713Z,49.27
2019-05-18T08:35:39.631Z,39.75
2019-05-18T08:38:09.211Z,39.05
2019-05-18T08:40:37.982Z,39.55
2019-05-18T08:43:06.803Z,39.83
2019-05-18T08:45:35.694Z,43.40
2019-05-18T08:48:04.469Z,41.00
2019-05-18T08:50:33.577Z,43.60
2019-05-18T08:53:04.128Z,38.58
2019-05-18T08:55:32.884Z,42.15
2019-05-18T08:58:02.594Z,38.95
2019-05-18T09:00:31.480Z,39.55
2019-05-18T09:03:00.350Z,40.85
2019-05-18T09:05:29.133Z,40.10
2019-05-18T09:07:57.843Z,38.33
2019-05-18T09:10:26.602Z,39.00
2019-05-18T09:12:55.404Z,37.70
2019-05-18T09:15:24.286Z,38.08
2019-05-18T09:17:53.005Z,38.88
2019-05-18T09:20:21.886Z,38.45
2019-05-18T09:22:51.090Z,37.80
2019-05-18T09:25:19.858Z,37.10
2019-05-18T09:27:48.765Z,39.40
2019-05-18T09:30:17.952Z,36.85
2019-05-18T09:32:46.759Z,37.20
2019-05-18T09:35:15.954Z,37.20
2019-05-18T09:37:44.738Z,37.80
2019-05-18T09:40:13.835Z,41.98
2019-05-18T09:42:42.593Z,35.83
2019-05-18T09:45:12.603Z,39.10
2019-05-18T09:47:41.430Z,38.00
2019-05-18T09:50:10.702Z,37.03
2019-05-18T09:52:45.305Z,40.67
2019-05-18T09:55:10.259Z,38.50
2019-05-18T09:57:39.057Z,38.35
2019-05-18T10:00:10.678Z,41.20
2019-05-18T10:02:40.604Z,43.92
2019-05-18T10:05:18.787Z,36.77
2019-05-18T10:07:46.885Z,38.55
2019-05-18T10:10:16.134Z,37.08
2019-05-18T10:12:45.284Z,36.45
2019-05-18T10:15:14.175Z,37.35
2019-05-18T10:17:42.958Z,35.43
2019-05-18T10:20:12.029Z,41.92
2019-05-18T10:22:53.471Z,34.63
2019-05-18T10:25:12.098Z,32.73
2019-05-18T10:27:40.854Z,35.90
2019-05-18T10:30:11.308Z,36.35
2019-05-18T10:32:40.216Z,35.45
2019-05-18T10:35:09.479Z,36.65
2019-05-18T10:37:38.694Z,36.58
2019-05-18T10:40:08.795Z,37.20
2019-05-18T10:42:37.603Z,36.10
2019-05-18T10:45:07.902Z,33.70
2019-05-18T10:47:36.710Z,33.78
2019-05-18T10:50:07.101Z,33.67
2019-05-18T10:52:35.930Z,32.37
2019-05-18T10:55:08.506Z,33.63
2019-05-18T10:57:37.409Z,31.57
2019-05-18T11:00:11.336Z,30.25
2019-05-18T11:02:40.361Z,30.50
2019-05-18T11:05:09.664Z,29.10
2019-05-18T11:07:39.412Z,30.32
2019-05-18T11:10:09.427Z,34.83
2019-05-18T11:12:38.197Z,35.98
2019-05-18T11:15:08.922Z,31.65
2019-05-18T11:17:37.837Z,32.30
2019-05-18T11:20:09.183Z,31.87
2019-05-18T11:25:09.407Z,29.15
2019-05-18T11:27:38.358Z,27.77
2019-05-18T11:30:08.963Z,29.82
2019-05-18T11:32:38.453Z,29.18
2019-05-18T11:35:08.301Z,27.10
2019-05-18T11:37:37.131Z,28.25
2019-05-18T11:40:07.289Z,27.00
2019-05-18T11:42:36.241Z,25.50
2019-05-18T11:45:09.926Z,22.22
2019-05-18T11:47:38.770Z,22.77
2019-05-18T11:50:08.925Z,20.30
2019-05-18T11:52:45.145Z,22.53
2019-05-18T11:55:14.410Z,22.58
2019-05-18T11:57:43.335Z,23.55
2019-05-18T12:00:15.277Z,22.65
2019-05-18T12:02:44.081Z,29.30
2019-05-18T12:05:13.321Z,25.00
2019-05-18T12:07:42.170Z,22.48
2019-05-18T12:10:11.840Z,22.50
2019-05-18T12:12:40.870Z,21.37
2019-05-18T12:15:29.833Z,26.00
2019-05-18T12:17:58.756Z,21.95
2019-05-18T12:20:27.825Z,20.25
2019-05-18T12:22:56.610Z,17.87
2019-05-18T12:25:25.498Z,23.12
2019-05-18T12:27:55.725Z,22.22
2019-05-18T12:30:24.895Z,25.65
2019-05-18T12:32:53.811Z,23.77
2019-05-18T12:35:22.804Z,27.60
2019-05-18T12:37:51.690Z,25.12
2019-05-18T12:40:22.125Z,24.07
2019-05-18T12:42:51.189Z,22.90
2019-05-18T12:45:20.309Z,26.17
2019-05-18T12:47:49.097Z,22.60
2019-05-18T12:50:18.815Z,27.98
2019-05-18T12:52:47.679Z,21.62
2019-05-18T12:55:17.385Z,21.97
2019-05-18T12:57:46.198Z,23.65
2019-05-18T13:00:17.754Z,24.40
2019-05-18T13:02:47.990Z,30.02
2019-05-18T13:05:17.700Z,23.20
2019-05-18T13:07:55.140Z,19.12
2019-05-18T13:10:24.595Z,19.98
2019-05-18T13:12:53.474Z,18.92
2019-05-18T13:15:23.650Z,22.10
2019-05-18T13:17:52.479Z,19.50
2019-05-18T13:20:23.058Z,23.65
2019-05-18T13:22:51.894Z,20.08
2019-05-18T13:25:20.868Z,19.05
2019-05-18T13:27:50.188Z,19.75
2019-05-18T13:30:24.799Z,18.87
2019-05-18T13:32:58.432Z,21.42
2019-05-18T13:35:30.759Z,19.45
2019-05-18T13:38:01.396Z,24.37
2019-05-18T13:40:31.847Z,22.93
2019-05-18T13:43:00.889Z,19.53
2019-05-18T13:45:29.807Z,17.85
2019-05-18T13:47:58.618Z,20.27
2019-05-18T13:50:27.508Z,15.88
2019-05-18T13:52:56.296Z,18.17
2019-05-18T14:09:23.643Z,24.75
2019-05-18T14:11:53.021Z,16.55
2019-05-18T14:14:21.943Z,16.90
2019-05-18T14:16:50.827Z,17.90
2019-05-18T14:19:19.617Z,13.70
2019-05-18T14:21:48.507Z,16.00
2019-05-18T14:24:17.286Z,15.85
2019-05-18T14:26:45.980Z,12.93
2019-05-18T14:29:14.769Z,14.40
2019-05-18T14:31:43.433Z,18.95
2019-05-18T14:34:12.277Z,19.00
2019-05-18T14:36:41.234Z,18.75
2019-05-18T14:39:10.128Z,22.90
2019-05-18T14:41:42.332Z,19.23
2019-05-18T14:44:09.441Z,16.17
2019-05-18T14:46:38.311Z,17.17
2019-05-18T14:49:07.433Z,17.52
2019-05-18T14:51:36.398Z,20.30
2019-05-18T14:54:05.519Z,17.48
2019-05-18T14:56:35.976Z,15.88
2019-05-18T14:59:05.028Z,23.47
2019-05-18T15:01:33.904Z,19.42
2019-05-18T15:04:03.236Z,19.35
2019-05-18T15:06:34.374Z,20.30
2019-05-18T15:09:03.672Z,18.40
2019-05-18T15:11:32.665Z,18.57
2019-05-18T15:14:01.602Z,20.90
2019-05-18T15:16:30.662Z,31.80
2019-05-18T15:18:59.392Z,36.50
2019-05-18T15:21:28.227Z,24.82
2019-05-18T15:23:57.228Z,26.35
2019-05-18T15:26:26.017Z,26.10
2019-05-18T15:28:55.029Z,35.70
2019-05-18T15:31:24.104Z,24.20
2019-05-18T15:33:53.501Z,21.68
2019-05-18T15:36:24.097Z,23.70
2019-05-18T15:38:53.132Z,21.85
2019-05-18T15:41:22.017Z,21.80
2019-05-18T15:43:52.718Z,17.90
2019-05-18T15:46:22.239Z,17.45
2019-05-18T15:48:51.171Z,20.75
2019-05-18T15:51:20.135Z,20.02
2019-05-18T15:53:49.037Z,20.50
2019-05-18T15:56:17.897Z,22.93
2019-05-18T15:58:46.806Z,19.52
2019-05-18T16:01:15.574Z,20.65
2019-05-18T16:03:44.385Z,20.92
2019-05-18T16:06:13.172Z,21.65
2019-05-18T16:08:42.101Z,22.65
2019-05-18T16:11:11.057Z,22.65
2019-05-18T16:13:39.794Z,23.02
2019-05-18T16:16:08.601Z,20.90
2019-05-18T16:18:37.622Z,21.80
2019-05-18T16:21:06.384Z,23.27
2019-05-18T16:23:35.438Z,22.35
2019-05-18T16:26:13.602Z,22.40
2019-05-18T16:28:35.349Z,21.15
2019-05-18T16:31:04.403Z,21.85
2019-05-18T16:33:33.335Z,22.60
2019-05-18T16:36:02.367Z,21.97
2019-05-18T16:38:31.408Z,22.50
2019-05-18T16:41:00.378Z,22.05
2019-05-18T16:43:30.295Z,20.43
2019-05-18T16:45:59.206Z,22.85
2019-05-18T16:48:28.011Z,24.95
2019-05-18T16:50:56.758Z,34.43
2019-05-18T16:53:25.650Z,32.78
2019-05-18T16:55:54.455Z,43.58
2019-05-18T16:58:42.606Z,26.90
2019-05-18T17:01:11.366Z,23.98
2019-05-18T17:03:41.163Z,22.30
2019-05-18T17:06:10.279Z,25.08
2019-05-18T17:08:39.189Z,24.27
2019-05-18T17:11:08.091Z,19.98
2019-05-18T17:13:37.071Z,24.57
2019-05-18T17:16:05.865Z,19.60
2019-05-18T17:18:34.649Z,19.67
2019-05-18T17:21:03.440Z,21.33
2019-05-18T17:23:32.228Z,20.27
2019-05-18T17:26:09.071Z,17.65
2019-05-18T17:28:38.031Z,25.25
2019-05-18T17:31:06.985Z,22.22
2019-05-18T17:33:36.184Z,22.90
2019-05-18T17:36:05.156Z,21.30
2019-05-18T17:38:34.067Z,20.88
2019-05-18T17:41:02.878Z,21.20
2019-05-18T17:43:31.738Z,20.80
2019-05-18T17:46:00.541Z,23.50
2019-05-18T17:48:29.329Z,20.82
2019-05-18T17:50:58.109Z,22.75
2019-05-18T17:53:26.980Z,22.87
2019-05-18T17:56:00.726Z,34.05
2019-05-18T17:58:30.109Z,23.30
2019-05-18T18:00:58.905Z,29.65
2019-05-18T18:03:27.655Z,32.53
2019-05-18T18:05:56.574Z,33.33
2019-05-18T18:08:25.481Z,31.02
2019-05-18T18:10:54.395Z,35.48
2019-05-18T18:13:23.345Z,33.70
2019-05-18T18:15:53.031Z,38.42
2019-05-18T18:18:21.846Z,44.42
2019-05-18T18:20:50.632Z,46.83
2019-05-18T18:23:19.425Z,42.38
2019-05-18T18:25:48.210Z,58.23
2019-05-18T18:28:17.001Z,53.28
2019-05-18T18:30:45.991Z,50.30
2019-05-18T18:33:14.857Z,50.60
2019-05-18T18:35:43.668Z,53.60
2019-05-18T18:38:12.576Z,68.07
2019-05-18T18:40:41.326Z,52.93
2019-05-18T18:43:10.048Z,54.55
2019-05-18T18:45:39.024Z,56.35
2019-05-18T18:48:07.916Z,59.15
2019-05-18T18:50:36.809Z,58.17
2019-05-18T18:53:05.697Z,57.40
2019-05-18T18:55:35.151Z,56.23
2019-05-18T18:58:04.549Z,61.42
2019-05-18T19:00:33.684Z,64.20
2019-05-18T19:03:02.385Z,61.23
2019-05-18T19:05:31.379Z,58.98
2019-05-18T19:08:00.181Z,68.00
2019-05-18T19:10:29.750Z,72.78
2019-05-18T19:12:58.665Z,71.10
2019-05-18T19:15:27.560Z,69.60
2019-05-18T19:17:56.341Z,65.05
2019-05-18T19:20:25.131Z,71.85
2019-05-18T19:22:53.920Z,74.80
2019-05-18T19:25:24.030Z,67.90
2019-05-18T19:27:55.297Z,65.32
2019-05-18T19:30:24.380Z,63.13
2019-05-18T19:32:53.167Z,68.37
2019-05-18T19:35:21.966Z,66.40
2019-05-18T19:37:50.849Z,68.72
2019-05-18T19:40:19.713Z,65.80
2019-05-18T19:42:48.531Z,68.33
2019-05-18T19:45:17.349Z,67.35
2019-05-18T19:47:46.208Z,63.33
2019-05-18T19:50:15.200Z,69.32
2019-05-18T19:52:44.201Z,74.62
2019-05-18T19:55:13.465Z,64.85
2019-05-18T19:57:42.393Z,66.07
2019-05-18T20:00:13.121Z,66.10
2019-05-18T20:02:41.992Z,66.00
2019-05-18T20:05:10.979Z,71.05
2019-05-18T20:07:39.785Z,72.27
2019-05-18T20:10:09.686Z,65.32
2019-05-18T20:12:38.901Z,74.37
2019-05-18T20:15:09.618Z,72.67
2019-05-18T20:17:38.852Z,68.02
2019-05-18T20:20:08.318Z,72.30
2019-05-18T20:22:37.207Z,64.60
2019-05-18T20:25:06.307Z,68.75
2019-05-18T20:27:35.141Z,75.65
2019-05-18T20:30:05.078Z,67.20
2019-05-18T20:32:33.915Z,70.32
2019-05-18T20:35:02.788Z,66.80
2019-05-18T20:37:31.572Z,71.77
2019-05-18T20:40:00.997Z,68.02
2019-05-18T20:42:29.765Z,66.75
2019-05-18T20:44:58.585Z,66.33
2019-05-18T20:47:27.352Z,70.03
2019-05-18T20:49:56.150Z,71.92
2019-05-18T20:52:24.937Z,75.30
2019-05-18T20:54:53.862Z,71.70
2019-05-18T20:57:22.618Z,74.77
2019-05-18T20:59:51.305Z,81.70
2019-05-18T21:02:20.091Z,73.70
2019-05-18T21:04:49.184Z,70.97
2019-05-18T21:07:17.977Z,73.00
2019-05-18T21:09:46.862Z,80.55
2019-05-18T21:12:15.730Z,69.55
2019-05-18T21:14:44.644Z,77.03
2019-05-18T21:17:13.436Z,82.42
2019-05-18T21:19:42.238Z,69.47
2019-05-18T21:22:10.991Z,76.77
2019-05-18T21:24:39.898Z,79.27
2019-05-18T21:27:08.790Z,70.75
2019-05-18T21:29:37.581Z,82.82
2019-05-18T21:32:06.449Z,76.28
2019-05-18T21:34:35.333Z,88.67
2019-05-18T21:37:04.262Z,85.38
2019-05-18T21:39:33.014Z,82.72
2019-05-18T21:42:01.929Z,90.35
2019-05-18T21:44:31.126Z,81.57
2019-05-18T21:46:59.917Z,91.53
2019-05-18T21:49:28.807Z,78.90
2019-05-18T21:51:57.593Z,81.50
2019-05-18T21:54:26.484Z,86.50
2019-05-18T21:56:55.169Z,79.40
2019-05-18T21:59:24.059Z,77.25
2019-05-18T22:01:52.848Z,77.62
2019-05-18T22:04:21.650Z,81.12
2019-05-18T22:06:50.428Z,80.38
2019-05-18T22:09:19.313Z,75.08
2019-05-18T22:11:48.311Z,88.30
2019-05-18T22:14:17.304Z,83.95
2019-05-18T22:16:46.063Z,79.27
2019-05-18T22:19:14.860Z,84.40
2019-05-18T22:21:43.768Z,84.47
2019-05-18T22:24:12.556Z,77.90
2019-05-18T22:26:41.348Z,80.75
2019-05-18T22:29:15.981Z,79.27
2019-05-18T22:31:48.817Z,76.70
2019-05-18T22:36:51.974Z,86.12
2019-05-18T22:39:26.497Z,87.90
2019-05-18T22:41:54.567Z,99.58
2019-05-18T22:44:24.060Z,91.02
2019-05-18T22:46:52.849Z,92.78
2019-05-18T22:49:21.824Z,97.75
2019-05-18T22:51:50.835Z,86.10
2019-05-18T22:54:19.726Z,86.92
2019-05-18T22:56:50.050Z,82.88
2019-05-18T22:59:19.680Z,82.75
2019-05-18T23:01:49.338Z,88.00
2019-05-18T23:04:18.153Z,93.67
2019-05-18T23:06:47.810Z,85.07
2019-05-18T23:09:17.556Z,85.20
2019-05-18T23:11:46.340Z,86.92
2019-05-18T23:14:19.153Z,92.25
2019-05-18T23:16:51.974Z,83.85
2019-05-18T23:19:24.812Z,86.20
2019-05-18T23:21:54.021Z,86.90
2019-05-18T23:24:24.586Z,92.72
2019-05-18T23:26:58.341Z,85.92
2019-05-18T23:29:31.294Z,88.87
2019-05-18T23:32:02.428Z,85.32
2019-05-18T23:34:35.162Z,83.50
2019-05-18T23:37:08.153Z,85.83
2019-05-18T23:39:41.166Z,87.67
2019-05-18T23:42:14.239Z,84.87
2019-05-18T23:44:46.708Z,82.12
2019-05-18T23:47:18.393Z,88.80
2019-05-18T23:49:47.312Z,88.80
2019-05-18T23:52:19.699Z,80.12
2019-05-18T23:54:52.694Z,83.95
2019-05-18T23:57:26.616Z,87.15
